Time;durP1;ratioP1;P1;durP2;ratioP2;P2;SDS_P1;SDS_P2;PMS_P1;PMS_P2;Temp;Humidity;BMP_temperature;BMP_pressure;BME280_temperature;BME280_humidity;BME280_pressure;Samples;Min_cycle;Max_cycle;Signal;HPM_P1;HPM_P2
2021/10/29 00:00:10;;;;;;;;;;;12.50;98.30;12.80;99293.00;;;;346230;28;83554;-90
2021/10/29 00:00:22;;;;;;;;;;;12.50;98.30;12.90;99291.00;;;;341015;28;90980;-90
2021/10/29 00:00:39;;;;;;;;;;;12.50;98.60;12.90;99297.00;;;;343521;28;83422;-90
2021/10/29 00:00:51;;;;;;;;;;;12.50;98.40;12.90;99291.00;;;;344217;28;91362;-90
2021/10/29 00:01:04;;;;;;;;;;;12.50;98.40;13.00;99295.00;;;;344853;28;83932;-90
2021/10/29 00:01:16;;;;;;;;;;;12.50;98.40;13.00;99288.00;;;;341951;28;91588;-90
2021/10/29 00:01:30;;;;;;;;;;;12.50;98.40;13.00;99286.00;;;;344878;28;83467;-90
2021/10/29 00:01:42;;;;;;;;;;;12.60;98.40;13.00;99289.00;;;;345899;28;90479;-90
2021/10/29 00:01:54;;;;;;;;;;;12.60;98.40;13.00;99287.00;;;;344769;28;83383;-90
2021/10/29 00:02:06;;;;;;;;;;;12.50;98.40;13.00;99288.00;;;;341659;28;90271;-90
2021/10/29 00:02:18;;;;;;;;;;;12.50;98.30;13.00;99287.00;;;;344906;28;83444;-90
2021/10/29 00:02:30;;;;;;;;;;;12.60;98.40;12.90;99287.00;;;;342737;28;90999;-90
2021/10/29 00:02:42;;;;;;;;;;;12.60;98.40;12.90;99289.00;;;;346095;28;83373;-90
2021/10/29 00:02:54;;;;;;;;;;;12.60;98.40;12.90;99286.00;;;;347253;28;90331;-90
2021/10/29 00:03:06;;;;;;;;;;;12.50;98.20;12.90;99286.00;;;;346074;28;83600;-90
2021/10/29 00:03:18;;;;;;;;;;;12.60;98.20;13.00;99292.00;;;;342729;28;90347;-90
2021/10/29 00:03:30;;;;;;;;;;;12.60;98.10;12.90;99285.00;;;;345561;28;83624;-90
2021/10/29 00:03:42;;;;;;;;;;;12.60;98.20;13.00;99283.00;;;;344276;28;90347;-89
2021/10/29 00:03:54;;;;;;;;;;;12.60;98.20;13.00;99292.00;;;;346148;28;83388;-89
2021/10/29 00:04:05;;;;;;;;;;;12.60;98.20;13.10;99287.00;;;;344342;28;91505;-90
2021/10/29 00:04:17;;;;;;;;;;;12.60;98.10;13.00;99286.00;;;;343854;28;82521;-90
2021/10/29 00:04:29;;;;;;;;;;;12.60;98.10;13.00;99282.00;;;;343050;28;92586;-90
2021/10/29 00:04:41;;;;;;;;;;;12.60;98.10;13.00;99286.00;;;;344890;28;82410;-90
2021/10/29 00:04:55;;;;;;;;;;;12.60;98.00;13.00;99286.00;;;;344475;28;91636;-90
2021/10/29 00:05:07;;;;;;;;;;;12.60;98.00;13.00;99278.00;;;;346299;28;82261;-90
2021/10/29 00:05:19;;;;;;;;;;;12.60;98.00;13.00;99289.00;;;;344489;28;91495;-90
2021/10/29 00:05:31;;;;;;;;;;;12.60;98.00;13.10;99297.00;;;;344854;28;83340;-90
2021/10/29 00:05:43;;;;;;;;;;;12.60;98.00;13.00;99288.00;;;;343143;28;90363;-90
2021/10/29 00:05:55;;;;;;;;;;;12.60;97.90;13.00;99284.00;;;;346268;28;83310;-91
2021/10/29 00:06:06;;;;;;;;;;;12.60;97.90;13.00;99281.00;;;;343051;28;91794;-90
2021/10/29 00:06:18;;;;;;;;;;;12.60;97.90;13.00;99290.00;;;;342275;28;83737;-90
2021/10/29 00:06:30;;;;;;;;;;;12.60;97.90;13.10;99287.00;;;;344985;28;91132;-90
2021/10/29 00:06:42;;;;;;;;;;;12.60;97.90;13.10;99293.00;;;;344676;28;83469;-90
2021/10/29 00:06:54;;;;;;;;;;;12.70;98.00;13.00;99289.00;;;;341711;28;91843;-90
2021/10/29 00:07:05;;;;;;;;;;;12.60;98.00;13.10;99292.00;;;;343611;28;82398;-90
2021/10/29 00:07:18;;;;;;;;;;;12.60;97.90;13.10;99305.00;;;;344743;28;90499;-90
2021/10/29 00:07:30;;;;;;;;;;;12.60;97.90;13.10;99294.00;;;;344862;28;83318;-90
2021/10/29 00:07:42;;;;;;;;;;;12.60;97.90;13.00;99294.00;;;;343117;28;91751;-90
2021/10/29 00:07:54;;;;;;;;;;;12.60;97.90;13.00;99288.00;;;;344978;28;82430;-89
2021/10/29 00:08:06;;;;;;;;;;;12.60;97.90;13.00;99286.00;;;;345815;28;90378;-90
2021/10/29 00:08:17;;;;;;;;;;;12.60;97.90;13.00;99291.00;;;;343388;28;83526;-90
2021/10/29 00:08:29;;;;;;;;;;;12.60;97.90;13.00;99286.00;;;;344363;28;92587;-90
2021/10/29 00:08:41;;;;;;;;;;;12.60;97.80;13.00;99283.00;;;;343347;28;83385;-90
2021/10/29 00:08:53;;;;;;;;;;;12.60;97.80;13.00;99286.00;;;;345822;28;90456;-90
2021/10/29 00:09:05;;;;;;;;;;;12.60;97.80;13.00;99293.00;;;;349110;27;82514;-91
2021/10/29 00:09:17;;;;;;;;;;;12.60;97.80;13.00;99290.00;;;;343219;28;91217;-90
2021/10/29 00:09:32;;;;;;;;;;;12.60;97.80;13.00;99287.00;;;;343213;28;83419;-90
2021/10/29 00:09:44;;;;;;;;;;;12.70;97.90;13.00;99288.00;;;;344360;28;90538;-90
2021/10/29 00:09:58;;;;;;;;;;;12.60;97.80;13.10;99292.00;;;;344717;28;83536;-90
2021/10/29 00:10:10;;;;;;;;;;;12.60;97.80;13.10;99288.00;;;;343084;28;91006;-90
2021/10/29 00:10:22;;;;;;;;;;;12.60;97.80;13.10;99290.00;;;;345468;28;83462;-90
2021/10/29 00:10:34;;;;;;;;;;;12.70;97.80;13.00;99287.00;;;;344416;28;91138;-90
2021/10/29 00:10:46;;;;;;;;;;;12.70;97.80;13.00;99279.00;;;;343473;28;83423;-90
2021/10/29 00:10:57;;;;;;;;;;;12.70;97.70;13.00;99283.00;;;;341670;28;90439;-91
2021/10/29 00:11:09;;;;;;;;;;;12.70;97.70;13.10;99294.00;;;;343612;28;83393;-90
2021/10/29 00:11:21;;;;;;;;;;;12.70;97.70;13.00;99281.00;;;;342990;28;91596;-90
2021/10/29 00:11:33;;;;;;;;;;;12.70;97.60;13.00;99295.00;;;;344952;28;83346;-90
2021/10/29 00:11:45;;;;;;;;;;;12.70;97.60;13.00;99283.00;;;;342822;28;91117;-90
2021/10/29 00:11:56;;;;;;;;;;;12.70;97.60;13.00;99285.00;;;;340845;28;82334;-90
2021/10/29 00:12:09;;;;;;;;;;;12.70;97.60;13.00;99288.00;;;;344422;28;90233;-90
2021/10/29 00:12:24;;;;;;;;;;;12.70;97.60;13.00;99288.00;;;;345650;28;83639;-91
2021/10/29 00:12:40;;;;;;;;;;;12.70;97.60;13.00;99285.00;;;;344081;28;91660;-90
2021/10/29 00:12:51;;;;;;;;;;;12.70;97.60;13.00;99289.00;;;;343322;28;83350;-90
2021/10/29 00:13:03;;;;;;;;;;;12.70;97.60;13.10;99287.00;;;;343034;28;90424;-90
2021/10/29 00:13:16;;;;;;;;;;;12.70;97.60;13.00;99291.00;;;;344750;28;83169;-89
2021/10/29 00:13:28;;;;;;;;;;;12.70;97.60;13.10;99292.00;;;;345745;28;91536;-90
2021/10/29 00:13:39;;;;;;;;;;;12.70;97.60;13.10;99285.00;;;;343521;28;83354;-90
2021/10/29 00:13:51;;;;;;;;;;;12.70;97.60;13.10;99286.00;;;;341769;28;90419;-90
2021/10/29 00:14:03;;;;;;;;;;;12.70;97.60;13.10;99290.00;;;;346225;28;83289;-90
2021/10/29 00:14:15;;;;;;;;;;;12.70;97.60;13.10;99290.00;;;;344423;28;91659;-90
2021/10/29 00:14:30;;;;;;;;;;;12.70;97.60;13.00;99285.00;;;;343531;28;83386;-90
2021/10/29 00:14:43;;;;;;;;;;;12.70;97.50;13.10;99291.00;;;;341680;28;89429;-90
2021/10/29 00:14:54;;;;;;;;;;;12.70;97.50;13.10;99284.00;;;;342168;28;83396;-90
2021/10/29 00:15:06;;;;;;;;;;;12.70;97.50;13.10;99276.00;;;;344335;28;89514;-90
2021/10/29 00:15:18;;;;;;;;;;;12.70;97.50;13.00;99276.00;;;;344071;28;83482;-90
2021/10/29 00:15:31;;;;;;;;;;;12.70;97.50;13.10;99285.00;;;;342062;28;90808;-90
2021/10/29 00:15:43;;;;;;;;;;;12.70;97.50;13.10;99287.00;;;;343336;28;83445;-91
2021/10/29 00:15:55;;;;;;;;;;;12.70;97.50;13.10;99278.00;;;;344551;28;90469;-90
2021/10/29 00:16:07;;;;;;;;;;;12.70;97.40;13.10;99288.00;;;;343505;28;83522;-90
2021/10/29 00:16:18;;;;;;;;;;;12.70;97.40;13.10;99286.00;;;;346316;28;90474;-90
2021/10/29 00:16:30;;;;;;;;;;;12.70;97.30;13.10;99289.00;;;;344929;28;83266;-90
2021/10/29 00:16:42;;;;;;;;;;;12.70;97.40;13.10;99289.00;;;;345806;28;91498;-90
2021/10/29 00:16:54;;;;;;;;;;;12.70;97.40;13.10;99289.00;;;;344842;28;83518;-90
2021/10/29 00:17:06;;;;;;;;;;;12.70;97.40;13.10;99288.00;;;;343057;28;91442;-90
2021/10/29 00:17:18;;;;;;;;;;;12.70;97.40;13.00;99288.00;;;;342194;28;82491;-90
2021/10/29 00:17:30;;;;;;;;;;;12.70;97.40;13.00;99289.00;;;;342847;28;91087;-90
2021/10/29 00:17:42;;;;;;;;;;;12.70;97.60;13.10;99284.00;;;;343531;28;83366;-90
2021/10/29 00:17:53;;;;;;;;;;;12.70;97.30;13.10;99290.00;;;;344296;28;89434;-90
2021/10/29 00:18:05;;;;;;;;;;;12.70;97.40;13.10;99289.00;;;;343486;28;83340;-90
2021/10/29 00:18:17;;;;;;;;;;;12.70;97.30;13.10;99286.00;;;;342025;28;91369;-90
2021/10/29 00:18:29;;;;;;;;;;;12.70;97.30;13.10;99288.00;;;;344594;28;82569;-90
2021/10/29 00:18:40;;;;;;;;;;;12.80;97.40;13.10;99289.00;;;;345762;28;91226;-91
2021/10/29 00:18:52;;;;;;;;;;;12.70;97.30;13.10;99286.00;;;;342146;28;82347;-90
2021/10/29 00:19:04;;;;;;;;;;;12.70;97.30;13.10;99289.00;;;;341728;28;91301;-90
2021/10/29 00:19:16;;;;;;;;;;;12.70;97.30;13.10;99284.00;;;;343620;28;83280;-90
2021/10/29 00:19:27;;;;;;;;;;;12.70;97.30;13.10;99288.00;;;;346986;28;92014;-90
2021/10/29 00:19:39;;;;;;;;;;;12.70;97.30;13.10;99285.00;;;;344908;28;82467;-90
2021/10/29 00:19:51;;;;;;;;;;;12.80;97.30;13.10;99294.00;;;;344305;28;91493;-91
2021/10/29 00:20:04;;;;;;;;;;;12.70;97.30;13.00;99289.00;;;;346205;28;83300;-91
2021/10/29 00:20:16;;;;;;;;;;;12.80;97.30;13.10;99294.00;;;;345814;28;91611;-90
2021/10/29 00:20:28;;;;;;;;;;;12.70;97.20;13.10;99294.00;;;;344796;28;83240;-90
2021/10/29 00:20:39;;;;;;;;;;;12.70;97.20;13.00;99286.00;;;;345427;28;91582;-90
2021/10/29 00:20:52;;;;;;;;;;;12.70;97.20;13.10;99290.00;;;;346228;28;83565;-90
2021/10/29 00:21:04;;;;;;;;;;;12.70;97.20;13.10;99289.00;;;;345854;28;91245;-89
2021/10/29 00:21:16;;;;;;;;;;;12.70;97.20;13.10;99285.00;;;;344233;28;82398;-90
2021/10/29 00:21:27;;;;;;;;;;;12.70;97.20;13.10;99291.00;;;;342737;28;91195;-90
2021/10/29 00:21:39;;;;;;;;;;;12.70;97.20;13.10;99289.00;;;;344837;28;83305;-90
2021/10/29 00:21:51;;;;;;;;;;;12.80;97.20;13.10;99284.00;;;;344316;28;90230;-90
2021/10/29 00:22:03;;;;;;;;;;;12.80;97.20;13.10;99290.00;;;;344861;28;83314;-90
2021/10/29 00:22:15;;;;;;;;;;;12.80;97.20;13.10;99288.00;;;;343071;28;91454;-90
2021/10/29 00:22:27;;;;;;;;;;;12.80;97.20;13.20;99295.00;;;;340842;28;83321;-90
2021/10/29 00:22:40;;;;;;;;;;;12.80;97.20;13.20;99292.00;;;;344406;28;91749;-90
2021/10/29 00:22:51;;;;;;;;;;;12.80;97.20;13.10;99286.00;;;;346273;28;82386;-90
2021/10/29 00:23:03;;;;;;;;;;;12.80;97.20;13.10;99284.00;;;;344306;28;91543;-90
2021/10/29 00:23:15;;;;;;;;;;;12.80;97.10;13.10;99286.00;;;;344886;28;83242;-90
2021/10/29 00:23:30;;;;;;;;;;;12.80;97.10;13.20;99287.00;;;;342980;28;91509;-90
2021/10/29 00:23:42;;;;;;;;;;;12.80;97.10;13.30;99286.00;;;;346126;28;82333;-90
2021/10/29 00:23:56;;;;;;;;;;;12.80;97.20;13.20;99288.00;;;;344460;28;90107;-90
2021/10/29 00:24:08;;;;;;;;;;;12.80;97.20;13.20;99292.00;;;;343451;28;83276;-90
2021/10/29 00:24:19;;;;;;;;;;;12.80;97.20;13.20;99282.00;;;;345259;28;90220;-90
2021/10/29 00:24:32;;;;;;;;;;;12.80;97.10;13.10;99291.00;;;;346096;28;86388;-90
2021/10/29 00:24:43;;;;;;;;;;;12.80;97.10;13.10;99284.00;;;;345585;28;92499;-91
2021/10/29 00:24:55;;;;;;;;;;;12.80;97.10;13.10;99289.00;;;;346160;28;83518;-90
2021/10/29 00:25:07;;;;;;;;;;;12.80;97.10;13.10;99291.00;;;;345880;28;88905;-91
2021/10/29 00:25:19;;;;;;;;;;;12.80;97.10;13.10;99284.00;;;;342749;28;83362;-90
2021/10/29 00:25:31;;;;;;;;;;;12.80;97.10;13.10;99291.00;;;;341644;28;90303;-91
2021/10/29 00:25:43;;;;;;;;;;;12.80;97.10;13.10;99292.00;;;;344912;28;82468;-90
2021/10/29 00:25:54;;;;;;;;;;;12.80;97.10;13.10;99285.00;;;;344417;28;90904;-90
2021/10/29 00:26:06;;;;;;;;;;;12.80;97.10;13.10;99288.00;;;;342199;28;83519;-90
2021/10/29 00:26:18;;;;;;;;;;;12.80;97.30;13.10;99286.00;;;;344494;28;91264;-90
2021/10/29 00:26:30;;;;;;;;;;;12.80;97.00;13.10;99289.00;;;;343577;28;83300;-90
2021/10/29 00:26:42;;;;;;;;;;;12.80;97.10;13.10;99289.00;;;;344362;28;93240;-90
2021/10/29 00:26:54;;;;;;;;;;;12.80;97.10;13.10;99285.00;;;;343418;28;83084;-90
2021/10/29 00:27:06;;;;;;;;;;;12.80;97.10;13.10;99289.00;;;;343018;28;91856;-90
2021/10/29 00:27:18;;;;;;;;;;;12.80;97.10;13.10;99288.00;;;;343073;28;83577;-90
2021/10/29 00:27:29;;;;;;;;;;;12.80;97.10;13.10;99293.00;;;;343384;28;91222;-91
2021/10/29 00:27:41;;;;;;;;;;;12.80;97.20;13.10;99288.00;;;;346207;28;83594;-90
2021/10/29 00:27:53;;;;;;;;;;;12.80;97.20;13.10;99281.00;;;;344471;28;90374;-90
2021/10/29 00:28:05;;;;;;;;;;;12.80;97.10;13.10;99292.00;;;;344887;28;82465;-90
2021/10/29 00:28:17;;;;;;;;;;;12.80;97.10;13.20;99290.00;;;;344703;28;91656;-89
2021/10/29 00:28:29;;;;;;;;;;;12.80;97.20;13.30;99287.00;;;;343476;28;83396;-90
2021/10/29 00:28:41;;;;;;;;;;;12.80;97.30;13.20;99291.00;;;;342972;28;92981;-91
2021/10/29 00:28:53;;;;;;;;;;;12.80;97.30;13.30;99289.00;;;;342119;28;82527;-90
2021/10/29 00:29:04;;;;;;;;;;;12.80;97.30;13.20;99295.00;;;;344419;28;91470;-90
2021/10/29 00:29:16;;;;;;;;;;;12.80;97.20;13.20;99284.00;;;;346268;28;82431;-90
2021/10/29 00:29:28;;;;;;;;;;;12.80;97.50;13.10;99289.00;;;;345769;28;90222;-90
2021/10/29 00:29:40;;;;;;;;;;;12.80;97.30;13.10;99295.00;;;;344893;28;83380;-90
2021/10/29 00:29:54;;;;;;;;;;;12.80;97.30;13.10;99289.00;;;;343093;28;91516;-90
2021/10/29 00:30:07;;;;;;;;;;;12.80;97.30;13.10;99291.00;;;;347304;28;83264;-90
2021/10/29 00:30:19;;;;;;;;;;;12.80;97.30;13.10;99297.00;;;;345358;28;91527;-90
2021/10/29 00:30:30;;;;;;;;;;;12.80;97.20;13.20;99288.00;;;;346108;28;83349;-90
2021/10/29 00:30:42;;;;;;;;;;;12.80;97.30;13.20;99292.00;;;;344263;28;94095;-91
2021/10/29 00:30:54;;;;;;;;;;;12.80;97.20;13.20;99289.00;;;;343478;28;83466;-90
2021/10/29 00:31:07;;;;;;;;;;;12.80;97.20;13.20;99288.00;;;;343111;28;90583;-90
2021/10/29 00:31:19;;;;;;;;;;;12.80;97.20;13.20;99296.00;;;;346163;28;83420;-91
2021/10/29 00:31:31;;;;;;;;;;;12.80;97.20;13.10;99286.00;;;;344342;28;91598;-90
2021/10/29 00:31:43;;;;;;;;;;;12.80;97.10;13.10;99293.00;;;;344912;28;82461;-91
2021/10/29 00:31:54;;;;;;;;;;;12.80;97.10;13.10;99287.00;;;;345806;28;91383;-90
2021/10/29 00:32:06;;;;;;;;;;;12.80;97.10;13.10;99281.00;;;;346197;28;83562;-90
2021/10/29 00:32:18;;;;;;;;;;;12.80;97.10;13.10;99284.00;;;;344530;28;88206;-90
2021/10/29 00:32:30;;;;;;;;;;;12.80;97.10;13.10;99282.00;;;;344972;28;82417;-90
2021/10/29 00:32:42;;;;;;;;;;;12.80;97.10;13.20;99285.00;;;;344389;28;91049;-91
2021/10/29 00:32:53;;;;;;;;;;;12.80;97.10;13.20;99290.00;;;;343285;28;83521;-90
2021/10/29 00:33:06;;;;;;;;;;;12.80;97.10;13.20;99285.00;;;;342927;28;91614;-90
2021/10/29 00:33:17;;;;;;;;;;;12.80;97.20;13.20;99281.00;;;;346429;28;83614;-90
2021/10/29 00:33:29;;;;;;;;;;;12.90;97.20;13.10;99277.00;;;;341810;28;90495;-90
2021/10/29 00:33:41;;;;;;;;;;;12.80;97.20;13.10;99284.00;;;;343553;28;82473;-90
2021/10/29 00:33:53;;;;;;;;;;;12.80;97.20;13.10;99287.00;;;;342861;28;91668;-91
2021/10/29 00:34:05;;;;;;;;;;;12.80;97.20;13.20;99285.00;;;;343428;28;82347;-90
2021/10/29 00:34:17;;;;;;;;;;;12.80;97.20;13.20;99293.00;;;;342842;28;90860;-90
2021/10/29 00:34:29;;;;;;;;;;;12.80;97.20;13.10;99290.00;;;;344497;28;83447;-90
2021/10/29 00:34:41;;;;;;;;;;;12.80;97.20;13.10;99291.00;;;;341547;28;92916;-90
2021/10/29 00:34:53;;;;;;;;;;;12.80;97.20;13.10;99286.00;;;;344812;28;83400;-90
2021/10/29 00:35:05;;;;;;;;;;;12.80;97.20;13.10;99284.00;;;;341667;28;88466;-90
2021/10/29 00:35:17;;;;;;;;;;;12.80;97.20;13.10;99284.00;;;;342279;28;82303;-90
2021/10/29 00:35:29;;;;;;;;;;;12.80;97.30;13.10;99282.00;;;;344363;28;91336;-90
2021/10/29 00:35:40;;;;;;;;;;;12.80;97.20;13.10;99278.00;;;;343386;28;83444;-90
2021/10/29 00:35:53;;;;;;;;;;;12.80;97.30;13.10;99285.00;;;;343133;28;91191;-90
2021/10/29 00:36:04;;;;;;;;;;;12.80;97.30;13.10;99284.00;;;;343424;28;82501;-90
2021/10/29 00:36:16;;;;;;;;;;;12.80;97.30;13.20;99284.00;;;;344552;28;91621;-90
2021/10/29 00:36:28;;;;;;;;;;;12.80;97.30;13.20;99286.00;;;;344616;28;83495;-90
2021/10/29 00:36:40;;;;;;;;;;;12.80;97.30;13.20;99288.00;;;;342966;28;92562;-90
2021/10/29 00:36:51;;;;;;;;;;;12.80;97.30;13.20;99294.00;;;;346075;28;83466;-90
2021/10/29 00:37:03;;;;;;;;;;;12.80;97.30;13.10;99285.00;;;;344362;28;91402;-90
2021/10/29 00:37:15;;;;;;;;;;;12.80;97.30;13.10;99289.00;;;;343520;28;82514;-90
2021/10/29 00:37:27;;;;;;;;;;;12.80;97.20;13.10;99292.00;;;;342739;28;91587;-90
2021/10/29 00:37:40;;;;;;;;;;;12.80;97.20;13.10;99295.00;;;;343469;28;83240;-90
2021/10/29 00:37:52;;;;;;;;;;;12.80;97.20;13.10;99286.00;;;;343089;28;90441;-90
2021/10/29 00:38:04;;;;;;;;;;;12.80;97.20;13.10;99292.00;;;;343465;28;82380;-90
2021/10/29 00:38:16;;;;;;;;;;;12.80;97.10;13.10;99289.00;;;;343156;28;90167;-90
2021/10/29 00:38:28;;;;;;;;;;;12.80;97.10;13.10;99297.00;;;;344789;28;83357;-90
2021/10/29 00:38:40;;;;;;;;;;;12.80;97.10;13.10;99289.00;;;;344301;28;91359;-90
2021/10/29 00:38:52;;;;;;;;;;;12.80;97.10;13.10;99293.00;;;;344784;28;83413;-90
2021/10/29 00:39:04;;;;;;;;;;;12.80;97.10;13.10;99287.00;;;;340112;28;91196;-90
2021/10/29 00:39:16;;;;;;;;;;;12.80;97.10;13.10;99289.00;;;;344957;28;82636;-90
2021/10/29 00:39:28;;;;;;;;;;;12.80;97.10;13.10;99295.00;;;;346871;28;91622;-90
2021/10/29 00:39:40;;;;;;;;;;;12.80;97.20;13.10;99289.00;;;;344882;28;82617;-90
2021/10/29 00:39:52;;;;;;;;;;;12.80;97.20;13.10;99294.00;;;;345641;28;91268;-90
2021/10/29 00:40:05;;;;;;;;;;;12.80;97.20;13.10;99290.00;;;;342017;28;83394;-90
2021/10/29 00:40:17;;;;;;;;;;;12.80;97.20;13.10;99291.00;;;;343387;28;90217;-90
2021/10/29 00:40:29;;;;;;;;;;;12.80;97.20;13.10;99293.00;;;;346217;28;82241;-90
2021/10/29 00:40:40;;;;;;;;;;;12.80;97.10;13.10;99291.00;;;;345710;28;92066;-90
2021/10/29 00:40:52;;;;;;;;;;;12.80;97.10;13.10;99288.00;;;;346177;28;83521;-90
2021/10/29 00:41:04;;;;;;;;;;;12.80;97.20;13.10;99289.00;;;;341758;28;88817;-90
2021/10/29 00:41:16;;;;;;;;;;;12.80;97.10;13.10;99294.00;;;;346226;28;83417;-90
2021/10/29 00:41:28;;;;;;;;;;;12.80;97.10;13.10;99289.00;;;;345764;28;90260;-90
2021/10/29 00:41:40;;;;;;;;;;;12.80;97.10;13.10;99287.00;;;;347595;28;83274;-91
2021/10/29 00:41:51;;;;;;;;;;;12.80;97.20;13.10;99290.00;;;;347093;28;90140;-90
2021/10/29 00:42:03;;;;;;;;;;;12.80;97.20;13.10;99287.00;;;;342121;28;82540;-90
2021/10/29 00:42:15;;;;;;;;;;;12.80;97.20;13.10;99290.00;;;;343248;28;90023;-90
2021/10/29 00:42:27;;;;;;;;;;;12.80;97.20;13.20;99283.00;;;;344511;28;83332;-90
2021/10/29 00:42:40;;;;;;;;;;;12.80;97.20;13.10;99286.00;;;;344285;28;92165;-90
2021/10/29 00:42:52;;;;;;;;;;;12.80;97.20;13.10;99291.00;;;;346182;28;83517;-90
2021/10/29 00:43:03;;;;;;;;;;;12.80;97.20;13.10;99289.00;;;;342843;28;91599;-90
2021/10/29 00:43:15;;;;;;;;;;;12.80;97.10;13.10;99296.00;;;;343576;28;83212;-91
2021/10/29 00:43:27;;;;;;;;;;;12.80;97.10;13.10;99287.00;;;;345744;28;90171;-90
2021/10/29 00:43:39;;;;;;;;;;;12.80;97.10;13.10;99288.00;;;;343317;28;83283;-91
2021/10/29 00:43:50;;;;;;;;;;;12.80;97.10;13.10;99293.00;;;;341528;28;90303;-90
2021/10/29 00:44:03;;;;;;;;;;;12.80;97.10;13.10;99291.00;;;;346185;28;82377;-90
2021/10/29 00:44:23;;;;;;;;;;;12.80;97.10;13.10;99288.00;;;;344238;28;91713;-90
2021/10/29 00:44:35;;;;;;;;;;;12.80;97.10;13.10;99292.00;;;;343523;28;83188;-90
2021/10/29 00:44:47;;;;;;;;;;;12.80;97.10;13.10;99290.00;;;;344322;28;91241;-90
2021/10/29 00:44:59;;;;;;;;;;;12.80;97.10;13.20;99275.00;;;;343393;28;82550;-90
2021/10/29 00:45:11;;;;;;;;;;;12.80;97.20;13.30;99286.00;;;;343093;28;90262;-90
2021/10/29 00:45:22;;;;;;;;;;;12.90;97.30;13.30;99281.00;;;;347126;28;82549;-91
2021/10/29 00:45:34;;;;;;;;;;;12.90;97.30;13.20;99290.00;;;;344160;28;91388;-90
2021/10/29 00:45:47;;;;;;;;;;;12.90;97.20;13.20;99286.00;;;;344729;28;82616;-90
2021/10/29 00:45:59;;;;;;;;;;;12.90;97.30;13.20;99288.00;;;;341643;28;90279;-90
2021/10/29 00:46:11;;;;;;;;;;;12.90;97.30;13.20;99282.00;;;;343329;28;83493;-90
2021/10/29 00:46:23;;;;;;;;;;;12.80;97.30;13.20;99282.00;;;;342952;28;90448;-90
2021/10/29 00:46:35;;;;;;;;;;;12.90;97.30;13.20;99288.00;;;;343470;28;83360;-91
2021/10/29 00:46:46;;;;;;;;;;;12.90;97.30;13.10;99286.00;;;;344242;28;92382;-90
2021/10/29 00:46:58;;;;;;;;;;;12.90;97.20;13.10;99281.00;;;;343130;28;84209;-90
2021/10/29 00:47:10;;;;;;;;;;;12.90;97.10;13.20;99277.00;;;;345821;28;90394;-90
2021/10/29 00:47:22;;;;;;;;;;;12.90;97.20;13.20;99287.00;;;;344775;28;83339;-91
2021/10/29 00:47:35;;;;;;;;;;;12.90;97.20;13.20;99283.00;;;;344438;28;92004;-90
2021/10/29 00:47:47;;;;;;;;;;;12.90;97.20;13.20;99282.00;;;;343338;28;83410;-91
2021/10/29 00:47:59;;;;;;;;;;;12.90;97.30;13.10;99280.00;;;;344503;28;90282;-90
2021/10/29 00:48:13;;;;;;;;;;;12.90;97.20;13.10;99279.00;;;;344813;28;83446;-90
2021/10/29 00:48:25;;;;;;;;;;;12.90;97.30;13.10;99281.00;;;;342451;28;91383;-90
2021/10/29 00:48:37;;;;;;;;;;;12.90;97.20;13.10;99281.00;;;;346238;28;82409;-90
2021/10/29 00:48:49;;;;;;;;;;;12.80;97.10;13.10;99276.00;;;;342804;28;92339;-90
2021/10/29 00:49:01;;;;;;;;;;;12.80;97.10;13.10;99276.00;;;;344817;28;83464;-91
2021/10/29 00:49:13;;;;;;;;;;;12.80;97.00;13.10;99281.00;;;;343084;28;91439;-90
2021/10/29 00:49:25;;;;;;;;;;;12.80;96.90;13.10;99283.00;;;;343405;28;83240;-91
2021/10/29 00:49:37;;;;;;;;;;;12.80;96.90;13.10;99285.00;;;;344364;28;90262;-90
2021/10/29 00:49:48;;;;;;;;;;;12.80;96.80;13.10;99282.00;;;;344857;28;83408;-90
2021/10/29 00:50:00;;;;;;;;;;;12.80;96.90;13.10;99276.00;;;;345781;28;90514;-90
2021/10/29 00:50:12;;;;;;;;;;;12.80;97.00;13.10;99270.00;;;;344841;28;83493;-91
2021/10/29 00:50:24;;;;;;;;;;;12.80;97.00;13.20;99272.00;;;;342842;28;90572;-90
2021/10/29 00:50:36;;;;;;;;;;;12.80;97.00;13.20;99279.00;;;;343396;28;82555;-90
2021/10/29 00:50:48;;;;;;;;;;;12.80;97.00;13.10;99277.00;;;;343016;28;92305;-90
2021/10/29 00:51:00;;;;;;;;;;;12.80;97.00;13.20;99281.00;;;;344711;28;83427;-90
2021/10/29 00:51:12;;;;;;;;;;;12.80;97.00;13.20;99282.00;;;;344301;28;91519;-90
2021/10/29 00:51:24;;;;;;;;;;;12.80;97.00;13.20;99286.00;;;;344549;28;82510;-90
2021/10/29 00:51:36;;;;;;;;;;;12.80;97.10;13.10;99278.00;;;;344402;28;91142;-90
2021/10/29 00:51:48;;;;;;;;;;;12.80;97.00;13.10;99278.00;;;;343384;28;83292;-90
2021/10/29 00:52:00;;;;;;;;;;;12.80;97.00;13.10;99281.00;;;;341644;28;90215;-90
2021/10/29 00:52:11;;;;;;;;;;;12.80;97.00;13.10;99277.00;;;;342081;28;83152;-90
2021/10/29 00:52:23;;;;;;;;;;;12.80;97.00;13.10;99278.00;;;;341611;28;90438;-90
2021/10/29 00:52:35;;;;;;;;;;;12.80;97.00;13.10;99276.00;;;;343447;28;83431;-90
2021/10/29 00:52:47;;;;;;;;;;;12.80;97.00;13.10;99284.00;;;;342947;28;92403;-90
2021/10/29 00:52:58;;;;;;;;;;;12.80;97.00;13.10;99284.00;;;;342142;28;82447;-90
2021/10/29 00:53:10;;;;;;;;;;;12.80;97.00;13.10;99286.00;;;;341695;28;91616;-90
2021/10/29 00:53:23;;;;;;;;;;;12.90;97.30;13.10;99278.00;;;;343386;28;83596;-90
2021/10/29 00:53:34;;;;;;;;;;;12.80;97.00;13.10;99273.00;;;;341791;28;90386;-90
2021/10/29 00:53:46;;;;;;;;;;;12.80;97.00;13.10;99286.00;;;;340805;28;83373;-90
2021/10/29 00:53:58;;;;;;;;;;;12.80;97.00;13.10;99283.00;;;;341723;28;90422;-90
2021/10/29 00:54:14;;;;;;;;;;;12.80;97.00;13.10;99282.00;;;;343544;28;83383;-91
2021/10/29 00:54:26;;;;;;;;;;;12.80;97.00;13.10;99275.00;;;;343984;28;90184;-90
2021/10/29 00:54:39;;;;;;;;;;;12.80;97.00;13.10;99281.00;;;;346291;28;83453;-91
2021/10/29 00:54:51;;;;;;;;;;;12.80;97.00;13.10;99283.00;;;;345592;28;91450;-90
2021/10/29 00:55:04;;;;;;;;;;;12.80;97.00;13.10;99287.00;;;;343388;28;83453;-91
2021/10/29 00:55:16;;;;;;;;;;;12.80;97.00;13.00;99279.00;;;;343124;28;90141;-91
2021/10/29 00:55:27;;;;;;;;;;;12.80;97.00;13.00;99285.00;;;;347292;28;82553;-91
2021/10/29 00:55:39;;;;;;;;;;;12.80;97.00;13.00;99277.00;;;;345745;28;92771;-91
2021/10/29 00:55:51;;;;;;;;;;;12.80;97.00;13.00;99279.00;;;;343486;28;83359;-90
2021/10/29 00:56:03;;;;;;;;;;;12.70;96.90;13.00;99282.00;;;;342723;28;91627;-90
2021/10/29 00:56:15;;;;;;;;;;;12.80;97.00;13.00;99282.00;;;;346190;28;83319;-90
2021/10/29 00:56:27;;;;;;;;;;;12.80;97.00;13.00;99276.00;;;;345791;28;90284;-91
2021/10/29 00:56:39;;;;;;;;;;;12.80;97.00;13.10;99282.00;;;;344854;28;83378;-90
2021/10/29 00:56:50;;;;;;;;;;;12.80;97.00;13.10;99281.00;;;;344368;28;92320;-90
2021/10/29 00:57:02;;;;;;;;;;;12.80;97.00;13.00;99274.00;;;;344802;28;83582;-90
2021/10/29 00:57:14;;;;;;;;;;;12.80;97.00;13.00;99281.00;;;;345143;28;90385;-91
2021/10/29 00:57:26;;;;;;;;;;;12.80;97.00;13.00;99285.00;;;;345749;28;83562;-91
2021/10/29 00:57:38;;;;;;;;;;;12.70;97.00;13.00;99283.00;;;;345814;28;91471;-90
2021/10/29 00:57:51;;;;;;;;;;;12.80;97.00;13.00;99282.00;;;;344419;28;83513;-91
2021/10/29 00:58:02;;;;;;;;;;;12.80;97.00;13.00;99277.00;;;;344096;28;91186;-91
2021/10/29 00:58:15;;;;;;;;;;;12.80;97.00;13.00;99283.00;;;;344750;28;83299;-90
2021/10/29 00:58:26;;;;;;;;;;;12.80;97.00;13.00;99273.00;;;;344451;28;90352;-90
2021/10/29 00:58:38;;;;;;;;;;;12.80;97.00;13.00;99283.00;;;;342165;28;83388;-90
2021/10/29 00:58:50;;;;;;;;;;;12.80;97.00;13.00;99279.00;;;;342915;28;92366;-90
2021/10/29 00:59:02;;;;;;;;;;;12.80;97.00;13.00;99278.00;;;;342113;28;83474;-90
2021/10/29 00:59:14;;;;;;;;;;;12.70;97.00;13.00;99277.00;;;;343036;28;91712;-90
2021/10/29 00:59:26;;;;;;;;;;;12.80;97.00;13.00;99281.00;;;;347537;28;82466;-90
2021/10/29 00:59:38;;;;;;;;;;;12.80;97.00;13.10;99280.00;;;;344327;28;91608;-90
2021/10/29 00:59:50;;;;;;;;;;;12.70;97.00;13.00;99280.00;;;;343526;28;82522;-90